首页
METAR-TAF:

METAR-TAF

机场 :

Mankato, 明尼蘇達州, 美国

纬度: 44-13N, 经度: 093-55W, 海拔: 311米

当前天气观测

该预报发布于54分钟前的09:56 UTC
风速6节,风向
温度 19°C
湿度 100%
气压 1011 hPa
能見度: 16.1公里
阴天层高于800英尺

METAR: KMKT 260956Z AUTO 19006KT 10SM OVC008 19/19 A2984 RMK AO2 SLP104 T01890189

时间: 05:50 (10:50 UTC)

预报

该预报发布于2小时和17分钟前的08:33 UTC
预报有效从26日的 09点(UTC)到 27日的 06点(UTC)
风速5节,风向南转南东
能見度: 9.7公里
阴天层高于1500英尺
轻雾
短暂存在
从 26日的 10点(UTC)到 26日的 14点(UTC)
能見度: 6.4公里
阴天层高于800英尺
轻雾
从 26日的 1400点(UTC)
风速7节,风向
能見度: 10公里
阴天层高于1300英尺
从 26日的 1900点(UTC)
风速5节,风向西南
能見度: 9.7公里
阴天层高于2200英尺
小阵雨
几率 30%
从 26日的 20点(UTC)到 26日的 24点(UTC)
能見度: 4.8公里
散云层高于2200英尺
多云层高于4000英尺, 积雨云.
雷暴, 雨
从 27日的 0200点(UTC)
风速5节,风向北转西北
能見度: 10公里
多云层高于3000英尺

TAF: KMKT 260833Z 2609/2706 16005KT 6SM BR OVC015 TEMPO 2610/2614 4SM BR OVC008 FM261400 19007KT P6SM OVC013 FM261900 23005KT 6SM -SHRA OVC022 PROB30 2620/2624 3SM TSRA SCT022 BKN040CB FM270200 34005KT P6SM BKN030

超过4000个机场的气象观测和天气预报(METAR&TAF报告)。

可查询的气象台以黄色和红色小点在地图上表示。

将鼠标移到小点上方,可查看气象台名称。

然后点击查看天气观测和预报。

如需切换地图:点击带黑十字的绿色按钮放大地图;点击带横线的绿色按钮缩小地图;或者点击绿色箭头查看邻近地区的地图。


METAR-TAF: